Time;durP1;ratioP1;P1;durP2;ratioP2;P2;SDS_P1;SDS_P2;PMS_P1;PMS_P2;Temp;Humidity;BMP_temperature;BMP_pressure;BME280_temperature;BME280_humidity;BME280_pressure;Samples;Min_cycle;Max_cycle;Signal;HPM_P1;HPM_P2
2022/12/26 00:01:55;;;;;;;93.72;59.35;;;10.90;99.90;;;;;;5054010;28;20394;-63
2022/12/26 00:04:22;;;;;;;173.55;100.30;;;10.80;99.90;;;;;;5053009;28;20028;-63
2022/12/26 00:06:48;;;;;;;362.27;193.13;;;10.80;99.90;;;;;;5053808;28;20025;-63
2022/12/26 00:09:13;;;;;;;234.18;130.55;;;10.80;99.90;;;;;;5053190;28;20059;-63
2022/12/26 00:11:39;;;;;;;148.38;86.18;;;10.80;99.90;;;;;;5053506;28;20032;-63
2022/12/26 00:14:11;;;;;;;100.85;61.38;;;10.70;99.90;;;;;;5053399;28;20550;-63
2022/12/26 00:16:39;;;;;;;27.35;19.13;;;10.60;99.90;;;;;;5053492;28;20074;-63
2022/12/26 00:19:05;;;;;;;13.32;8.55;;;10.60;99.90;;;;;;5053197;28;20036;-63
2022/12/26 00:21:31;;;;;;;18.27;11.82;;;10.50;99.90;;;;;;5053322;28;20028;-63
2022/12/26 00:23:58;;;;;;;20.52;14.00;;;10.50;99.90;;;;;;5053084;28;20513;-63
2022/12/26 00:26:26;;;;;;;18.48;14.00;;;10.40;99.90;;;;;;5053635;28;20104;-64
2022/12/26 00:28:53;;;;;;;17.58;12.13;;;10.30;99.90;;;;;;5052871;28;20551;-63
2022/12/26 00:31:25;;;;;;;14.52;10.18;;;10.30;99.90;;;;;;5052833;28;20090;-63
2022/12/26 00:33:51;;;;;;;10.65;8.73;;;10.30;99.90;;;;;;5052733;28;20082;-63
2022/12/26 00:36:19;;;;;;;18.85;16.00;;;10.30;99.90;;;;;;5053165;28;20021;-63
2022/12/26 00:38:46;;;;;;;17.02;14.25;;;10.20;99.90;;;;;;5053245;28;20040;-63
2022/12/26 00:41:13;;;;;;;12.13;10.27;;;10.20;99.90;;;;;;5052940;28;20048;-63
2022/12/26 00:43:39;;;;;;;15.05;12.45;;;10.30;99.90;;;;;;5052922;28;20041;-63
2022/12/26 00:46:05;;;;;;;16.20;12.75;;;10.40;99.90;;;;;;5052511;28;20056;-63
2022/12/26 00:48:31;;;;;;;15.27;12.20;;;10.20;99.90;;;;;;5052931;28;20017;-63
2022/12/26 00:50:57;;;;;;;16.30;14.35;;;10.00;99.90;;;;;;5053208;28;20025;-63
2022/12/26 00:53:23;;;;;;;19.25;15.32;;;10.10;99.90;;;;;;5052566;28;20028;-63
2022/12/26 00:55:50;;;;;;;15.68;13.40;;;10.00;99.90;;;;;;5052587;28;20028;-63
2022/12/26 00:58:16;;;;;;;17.02;13.48;;;10.00;99.90;;;;;;5052520;28;20065;-63
2022/12/26 01:00:42;;;;;;;17.60;12.95;;;10.00;99.90;;;;;;5052577;28;20159;-63
2022/12/26 01:03:09;;;;;;;12.98;11.07;;;10.00;99.90;;;;;;5052593;28;20150;-63
2022/12/26 01:05:34;;;;;;;15.55;11.05;;;9.90;99.90;;;;;;5052450;28;20025;-63
2022/12/26 01:08:00;;;;;;;12.40;10.48;;;9.90;99.90;;;;;;5052851;28;20443;-63
2022/12/26 01:10:27;;;;;;;14.75;10.10;;;9.90;99.90;;;;;;5051885;28;20598;-63
2022/12/26 01:12:53;;;;;;;13.35;10.15;;;10.00;99.90;;;;;;5052664;28;20405;-63
2022/12/26 01:15:19;;;;;;;14.25;11.02;;;9.90;99.90;;;;;;5051852;28;20026;-63
2022/12/26 01:17:45;;;;;;;17.23;11.15;;;9.90;99.90;;;;;;5052277;28;20037;-63
2022/12/26 01:20:10;;;;;;;15.70;10.40;;;9.90;99.90;;;;;;5052647;28;20516;-63
2022/12/26 01:22:36;;;;;;;18.50;12.10;;;9.80;99.90;;;;;;5051979;28;20498;-63
2022/12/26 01:25:03;;;;;;;14.52;9.80;;;9.70;99.90;;;;;;5052519;28;20179;-63
2022/12/26 01:27:29;;;;;;;16.45;10.65;;;9.70;99.90;;;;;;5051986;28;20033;-63
2022/12/26 01:29:55;;;;;;;17.83;10.07;;;9.70;99.90;;;;;;5031968;28;20378;-63
2022/12/26 01:32:21;;;;;;;12.38;9.68;;;9.60;99.90;;;;;;5032156;28;20449;-63
2022/12/26 01:34:47;;;;;;;14.32;10.43;;;9.50;99.90;;;;;;5032487;28;20475;-63
2022/12/26 01:37:15;;;;;;;11.93;9.93;;;9.50;99.90;;;;;;5031586;28;20041;-64
2022/12/26 01:39:41;;;;;;;13.55;10.32;;;9.40;99.90;;;;;;5032512;28;20025;-63
2022/12/26 01:42:17;;;;;;;13.43;10.40;;;9.20;99.90;;;;;;5031961;28;20095;-63
2022/12/26 01:44:58;;;;;;;11.60;8.48;;;9.10;99.90;;;;;;5031693;28;20018;-63
2022/12/26 01:47:48;;;;;;;11.57;8.70;;;9.20;99.90;;;;;;5032081;28;20367;-63
2022/12/26 01:50:43;;;;;;;13.20;9.02;;;9.20;99.90;;;;;;5026417;28;20072;-63
2022/12/26 01:53:18;;;;;;;14.57;8.60;;;9.20;99.90;;;;;;5030909;28;20072;-63
2022/12/26 01:55:47;;;;;;;13.45;9.00;;;9.10;99.90;;;;;;5032041;28;20059;-63
2022/12/26 01:58:19;;;;;;;13.38;8.98;;;9.10;99.90;;;;;;5031766;28;20557;-64
2022/12/26 02:00:45;;;;;;;13.63;9.70;;;9.10;99.90;;;;;;5031559;28;20032;-63
2022/12/26 02:05:59;;;;;;;13.55;9.18;;;8.90;99.90;;;;;;5031813;28;20552;-62
2022/12/26 02:08:30;;;;;;;13.05;8.93;;;8.90;99.90;;;;;;5034006;28;20536;-63
2022/12/26 02:11:18;;;;;;;14.68;8.73;;;9.00;99.90;;;;;;5052351;28;20044;-63
2022/12/26 02:13:44;;;;;;;9.93;8.10;;;9.20;99.90;;;;;;5054837;28;20371;-63
2022/12/26 02:16:12;;;;;;;10.65;8.05;;;9.10;99.90;;;;;;5055583;28;20036;-63
2022/12/26 02:18:38;;;;;;;9.48;7.18;;;9.00;99.90;;;;;;5055896;28;20071;-63
2022/12/26 02:21:19;;;;;;;8.65;7.47;;;9.20;99.90;;;;;;5055648;28;20052;-63
2022/12/26 02:24:19;;;;;;;8.57;7.28;;;9.20;99.90;;;;;;5055495;28;20482;-63
2022/12/26 02:27:00;;;;;;;9.10;6.68;;;9.10;99.90;;;;;;5055684;28;20509;-63
2022/12/26 02:29:31;;;;;;;8.98;7.35;;;9.00;99.90;;;;;;5054806;28;20040;-63
2022/12/26 02:32:24;;;;;;;8.50;6.70;;;9.00;99.90;;;;;;5055251;28;20367;-63
2022/12/26 02:34:58;;;;;;;10.65;7.18;;;9.00;99.90;;;;;;5055527;28;20081;-63
2022/12/26 02:37:43;;;;;;;9.10;7.00;;;9.00;99.90;;;;;;5055547;28;20056;-63
2022/12/26 02:40:12;;;;;;;9.15;6.95;;;9.10;99.90;;;;;;5055052;28;20020;-63
2022/12/26 02:42:55;;;;;;;10.93;7.78;;;9.00;99.90;;;;;;5055089;28;20061;-63
2022/12/26 02:48:43;;;;;;;10.63;6.72;;;9.00;99.90;;;;;;5055313;28;20087;-63
2022/12/26 03:15:17;;;;;;;9.40;7.40;;;9.10;99.90;;;;;;5012912;28;20045;-63
2022/12/26 03:17:48;;;;;;;7.93;7.05;;;9.10;99.90;;;;;;5012934;28;20503;-64
2022/12/26 03:20:35;;;;;;;10.43;6.88;;;9.10;99.90;;;;;;5011419;28;20092;-63
2022/12/26 03:23:12;;;;;;;8.82;6.40;;;9.20;99.90;;;;;;5012540;28;20032;-63
2022/12/26 03:28:34;;;;;;;9.55;6.55;;;9.20;99.90;;;;;;5012608;28;20045;-64
2022/12/26 03:31:05;;;;;;;10.15;7.10;;;9.20;99.90;;;;;;4995998;28;20042;-63
2022/12/26 03:36:33;;;;;;;11.27;7.60;;;9.20;99.90;;;;;;5012597;28;20080;-63
2022/12/26 03:39:18;;;;;;;9.00;7.22;;;9.20;99.90;;;;;;4995996;28;20046;-63
2022/12/26 04:20:21;;;;;;;15.70;7.47;;;8.80;99.90;;;;;;5053451;28;20086;-63
2022/12/26 04:45:42;;;;;;;10.43;7.60;;;8.90;99.90;;;;;;5052726;28;20400;-63
2022/12/26 04:50:54;;;;;;;12.70;8.23;;;8.70;99.90;;;;;;5053325;28;20646;-63
2022/12/26 04:53:20;;;;;;;9.07;7.75;;;8.80;99.90;;;;;;5052437;28;20096;-63
2022/12/26 04:55:46;;;;;;;9.88;7.65;;;8.80;99.90;;;;;;5052567;28;20155;-63
2022/12/26 04:58:12;;;;;;;12.35;7.65;;;8.70;99.90;;;;;;5052564;28;20115;-63
2022/12/26 05:00:38;;;;;;;10.32;8.45;;;8.60;99.90;;;;;;5052649;28;20294;-63
2022/12/26 05:11:28;;;;;;;8.40;7.10;;;9.00;99.90;;;;;;5052932;28;20040;-63
2022/12/26 05:13:55;;;;;;;10.80;7.80;;;9.00;99.90;;;;;;5052311;28;20033;-63
2022/12/26 05:30:15;;;;;;;12.27;8.10;;;8.90;99.90;;;;;;5032303;28;20037;-62
2022/12/26 05:35:25;;;;;;;13.18;7.68;;;8.80;99.90;;;;;;5032219;28;20028;-63
2022/12/26 05:37:51;;;;;;;11.18;8.00;;;8.90;99.90;;;;;;5031950;28;20079;-63
2022/12/26 05:40:17;;;;;;;9.05;7.30;;;8.90;99.90;;;;;;5032247;28;20029;-62
2022/12/26 05:42:42;;;;;;;12.07;9.30;;;8.90;99.90;;;;;;5031381;28;20048;-63
2022/12/26 05:45:08;;;;;;;17.65;11.95;;;8.90;99.90;;;;;;5032109;28;20405;-63
2022/12/26 05:47:34;;;;;;;13.82;10.88;;;8.80;99.90;;;;;;5032076;28;20022;-63
2022/12/26 05:50:00;;;;;;;13.10;7.95;;;8.80;99.90;;;;;;5032308;28;20405;-63
2022/12/26 05:52:26;;;;;;;10.90;7.63;;;8.80;99.90;;;;;;5031861;28;20025;-63
2022/12/26 05:54:51;;;;;;;11.48;7.80;;;8.80;99.90;;;;;;5031618;28;20105;-60
2022/12/26 05:57:17;;;;;;;11.13;7.53;;;8.80;99.90;;;;;;5032002;28;20037;-63
2022/12/26 05:59:43;;;;;;;11.77;8.05;;;8.90;99.90;;;;;;5032046;28;20026;-63
2022/12/26 06:02:08;;;;;;;10.13;7.50;;;9.00;99.90;;;;;;5031978;28;20033;-63
2022/12/26 06:04:35;;;;;;;12.98;8.02;;;9.00;99.90;;;;;;5031805;28;20033;-64
2022/12/26 06:07:01;;;;;;;13.00;8.38;;;8.90;99.90;;;;;;5030943;28;20021;-63
2022/12/26 06:09:27;;;;;;;15.88;8.32;;;8.80;99.90;;;;;;5035630;28;20053;-63
2022/12/26 06:11:52;;;;;;;12.15;8.60;;;8.90;99.90;;;;;;5052097;28;20052;-63
2022/12/26 06:14:18;;;;;;;14.18;8.98;;;8.90;99.90;;;;;;5051568;28;20098;-63
2022/12/26 06:16:44;;;;;;;17.38;10.15;;;8.80;99.90;;;;;;5051613;28;20029;-64
2022/12/26 06:19:09;;;;;;;10.82;8.00;;;8.90;99.90;;;;;;5051462;28;20521;-64
2022/12/26 06:21:35;;;;;;;9.90;7.90;;;8.80;99.90;;;;;;5051590;28;20025;-63
2022/12/26 06:24:01;;;;;;;12.40;8.40;;;8.70;99.90;;;;;;5051220;28;20025;-64
2022/12/26 06:26:27;;;;;;;14.15;9.02;;;8.70;99.90;;;;;;5052060;28;20480;-64
2022/12/26 06:28:52;;;;;;;14.50;9.02;;;8.70;99.90;;;;;;5051470;28;20024;-63
2022/12/26 06:31:21;;;;;;;13.05;8.45;;;8.70;99.90;;;;;;5051657;28;20057;-64
2022/12/26 06:33:54;;;;;;;13.98;8.85;;;8.70;99.90;;;;;;5051681;28;20020;-63
2022/12/26 06:36:22;;;;;;;10.77;8.90;;;8.60;99.90;;;;;;5051677;28;20037;-64
2022/12/26 06:38:48;;;;;;;13.05;9.02;;;8.50;99.90;;;;;;5051495;28;20040;-63
2022/12/26 06:41:16;;;;;;;13.57;8.98;;;8.30;99.90;;;;;;5051518;28;20177;-63
2022/12/26 06:43:42;;;;;;;12.82;9.18;;;8.20;99.90;;;;;;5051350;28;20040;-64
2022/12/26 06:46:12;;;;;;;14.00;9.30;;;8.10;99.90;;;;;;5051757;28;20033;-63
2022/12/26 06:48:38;;;;;;;13.82;9.35;;;8.00;99.90;;;;;;5051153;28;20025;-63
2022/12/26 06:51:13;;;;;;;16.40;8.77;;;8.10;99.90;;;;;;5051460;28;20056;-63
2022/12/26 06:53:39;;;;;;;10.82;8.10;;;8.20;99.90;;;;;;5052242;28;20170;-64
2022/12/26 06:56:11;;;;;;;21.73;8.98;;;8.20;99.90;;;;;;5054863;28;20526;-64
2022/12/26 06:58:37;;;;;;;10.95;8.20;;;8.20;99.90;;;;;;5055179;28;20083;-64
2022/12/26 07:01:11;;;;;;;13.88;8.73;;;8.10;99.90;;;;;;5054810;28;20025;-64
2022/12/26 07:03:38;;;;;;;10.57;8.40;;;8.10;99.90;;;;;;5054442;28;20079;-63
2022/12/26 07:06:10;;;;;;;11.80;7.95;;;8.20;99.90;;;;;;5055061;28;20393;-63
2022/12/26 07:08:36;;;;;;;11.82;8.90;;;8.00;99.90;;;;;;5054477;28;20033;-63
2022/12/26 07:11:02;;;;;;;13.65;9.95;;;8.10;99.90;;;;;;5054543;28;20037;-63
2022/12/26 07:13:28;;;;;;;16.85;13.32;;;8.30;99.90;;;;;;5053242;28;20029;-63
2022/12/26 07:15:57;;;;;;;13.15;10.02;;;8.40;99.90;;;;;;5054600;28;20017;-64
2022/12/26 07:18:23;;;;;;;13.73;11.55;;;8.30;99.90;;;;;;5053272;28;20073;-63
2022/12/26 07:20:49;;;;;;;18.73;15.27;;;8.40;99.90;;;;;;5054367;28;20064;-63
2022/12/26 07:23:14;;;;;;;28.52;23.13;;;8.40;99.90;;;;;;5054464;28;20473;-63
2022/12/26 07:25:40;;;;;;;28.05;22.95;;;8.30;99.90;;;;;;5054340;28;20021;-64
2022/12/26 07:28:06;;;;;;;18.40;14.13;;;8.30;99.90;;;;;;5054440;28;20425;-64
2022/12/26 07:30:31;;;;;;;15.63;11.80;;;8.30;99.90;;;;;;5053992;28;20074;-64
2022/12/26 07:32:57;;;;;;;12.73;11.38;;;8.30;99.90;;;;;;5054350;28;20025;-63
2022/12/26 07:35:23;;;;;;;13.55;9.13;;;8.30;99.90;;;;;;5054121;28;20021;-63
2022/12/26 07:37:48;;;;;;;15.13;9.13;;;8.30;99.90;;;;;;5052830;28;20561;-63
2022/12/26 07:40:14;;;;;;;13.98;10.35;;;8.30;99.90;;;;;;5054477;28;20025;-64
2022/12/26 07:42:40;;;;;;;12.82;9.50;;;8.30;99.90;;;;;;5054068;28;20111;-64
2022/12/26 07:45:06;;;;;;;11.57;8.73;;;8.30;99.90;;;;;;5053867;28;20024;-64
2022/12/26 07:47:32;;;;;;;13.82;10.18;;;8.30;99.90;;;;;;5053543;28;20040;-63
2022/12/26 07:49:57;;;;;;;17.50;9.40;;;8.30;99.90;;;;;;5054257;28;20021;-64
2022/12/26 07:52:23;;;;;;;11.30;9.40;;;8.20;99.90;;;;;;5053886;28;20033;-63
2022/12/26 07:54:49;;;;;;;15.77;12.55;;;8.20;99.90;;;;;;5053797;28;20516;-64
2022/12/26 07:57:14;;;;;;;11.88;9.57;;;8.40;99.90;;;;;;5053746;28;20056;-64
2022/12/26 07:59:40;;;;;;;14.07;10.52;;;8.40;99.90;;;;;;5053664;28;20041;-64
2022/12/26 08:02:07;;;;;;;14.35;11.23;;;8.40;99.90;;;;;;5053798;28;20103;-63
2022/12/26 08:04:33;;;;;;;14.10;9.90;;;8.40;99.90;;;;;;5052455;28;20397;-64
2022/12/26 08:06:59;;;;;;;18.80;10.43;;;8.50;99.90;;;;;;5053055;28;20021;-64
2022/12/26 08:09:24;;;;;;;13.15;9.25;;;8.50;99.90;;;;;;5053193;28;20052;-64
2022/12/26 08:11:50;;;;;;;12.43;9.18;;;8.50;99.90;;;;;;5053667;28;20032;-63
2022/12/26 08:14:16;;;;;;;15.82;9.95;;;8.50;99.90;;;;;;5053581;28;20029;-63
2022/12/26 08:16:42;;;;;;;14.57;10.07;;;8.50;99.90;;;;;;5052898;28;20109;-64
2022/12/26 08:19:09;;;;;;;15.88;9.90;;;8.50;99.90;;;;;;5053388;28;20112;-63
2022/12/26 08:21:35;;;;;;;16.88;10.32;;;8.60;99.90;;;;;;5053304;28;20571;-63
2022/12/26 08:24:02;;;;;;;14.38;12.88;;;8.70;99.90;;;;;;5053535;28;20045;-64
2022/12/26 08:26:27;;;;;;;18.17;12.52;;;8.70;99.90;;;;;;5053459;28;20051;-64
2022/12/26 08:28:55;;;;;;;24.88;17.30;;;8.80;99.90;;;;;;5053088;28;20037;-63
2022/12/26 08:31:21;;;;;;;25.33;21.17;;;8.90;99.90;;;;;;5053176;28;20017;-63
2022/12/26 08:33:47;;;;;;;23.15;20.60;;;9.00;99.90;;;;;;5053069;28;20067;-63
2022/12/26 08:36:16;;;;;;;25.90;22.65;;;9.10;99.90;;;;;;5052896;28;20379;-63
2022/12/26 08:38:42;;;;;;;25.70;20.83;;;9.20;99.90;;;;;;5052819;28;20040;-64
2022/12/26 08:41:08;;;;;;;27.83;23.88;;;9.40;99.90;;;;;;5053366;28;20021;-64
2022/12/26 08:43:34;;;;;;;26.08;21.38;;;9.50;99.90;;;;;;5052635;28;20477;-64
2022/12/26 08:46:04;;;;;;;26.25;21.00;;;9.90;99.90;;;;;;5052484;28;20087;-63
2022/12/26 08:48:31;;;;;;;23.73;20.13;;;10.10;99.90;;;;;;5052900;28;20070;-64
2022/12/26 08:51:01;;;;;;;22.85;19.13;;;10.30;99.90;;;;;;5052779;28;20089;-63
2022/12/26 08:53:28;;;;;;;24.25;18.65;;;10.60;99.90;;;;;;5052666;28;20032;-63
2022/12/26 08:55:54;;;;;;;19.08;14.25;;;10.70;99.90;;;;;;5052539;28;20025;-64
2022/12/26 08:58:20;;;;;;;15.07;10.85;;;11.00;99.90;;;;;;5052482;28;20061;-64
2022/12/26 09:00:46;;;;;;;17.70;10.40;;;10.80;99.90;;;;;;5052558;28;20021;-64
2022/12/26 09:03:14;;;;;;;14.43;9.95;;;11.30;99.90;;;;;;5052335;28;20028;-63
2022/12/26 09:05:39;;;;;;;14.00;9.10;;;11.60;99.90;;;;;;5052503;28;20021;-63
2022/12/26 09:08:05;;;;;;;12.77;8.77;;;12.50;99.90;;;;;;5052515;28;20036;-64
2022/12/26 09:10:32;;;;;;;14.75;8.32;;;14.40;99.90;;;;;;5052383;28;20053;-63
2022/12/26 09:12:57;;;;;;;13.30;8.65;;;14.30;99.90;;;;;;5052218;28;20032;-63
2022/12/26 09:15:23;;;;;;;15.48;9.30;;;14.30;99.90;;;;;;5052405;28;20025;-64
2022/12/26 09:17:49;;;;;;;13.52;8.82;;;13.60;99.90;;;;;;5051348;28;20401;-64
2022/12/26 09:20:15;;;;;;;10.40;7.82;;;13.20;99.90;;;;;;5052209;28;20409;-63
2022/12/26 09:22:49;;;;;;;11.35;8.00;;;12.90;99.90;;;;;;5052246;28;20029;-64
2022/12/26 09:25:20;;;;;;;10.85;7.93;;;12.90;99.90;;;;;;5052072;28;20025;-64
2022/12/26 09:27:46;;;;;;;13.40;8.10;;;12.80;99.90;;;;;;5052043;28;20029;-63
2022/12/26 09:30:12;;;;;;;9.45;8.23;;;12.60;99.90;;;;;;5051789;28;20025;-63
2022/12/26 09:32:38;;;;;;;12.55;8.10;;;12.50;99.90;;;;;;5052493;28;20059;-64
2022/12/26 09:35:04;;;;;;;14.45;7.90;;;12.60;99.90;;;;;;5052133;28;20048;-64
2022/12/26 09:37:30;;;;;;;10.93;6.72;;;12.80;99.90;;;;;;5051900;28;20033;-64
2022/12/26 09:39:56;;;;;;;9.38;6.53;;;12.60;99.90;;;;;;5052181;28;20036;-64
2022/12/26 09:43:02;;;;;;;11.00;6.15;;;12.40;99.90;;;;;;5051943;28;20104;-64
2022/12/26 09:46:05;;;;;;;9.55;5.70;;;12.60;99.90;;;;;;5052145;28;20053;-64
2022/12/26 09:48:38;;;;;;;10.10;6.30;;;12.90;99.90;;;;;;5052059;28;20408;-64
2022/12/26 09:51:04;;;;;;;10.23;5.90;;;12.80;99.90;;;;;;5052096;28;20017;-63
2022/12/26 09:53:34;;;;;;;12.20;6.03;;;12.90;99.90;;;;;;5051800;28;20090;-63
2022/12/26 09:56:04;;;;;;;10.75;6.25;;;13.00;99.90;;;;;;5051683;28;20025;-64
2022/12/26 09:58:37;;;;;;;9.00;5.85;;;13.10;99.90;;;;;;5051527;28;20064;-64
2022/12/26 10:01:14;;;;;;;8.25;5.78;;;13.20;99.90;;;;;;5051867;28;20071;-63
2022/12/26 10:03:52;;;;;;;10.02;5.70;;;13.10;99.90;;;;;;5051799;28;20402;-64
2022/12/26 10:06:25;;;;;;;10.80;5.90;;;13.20;99.90;;;;;;5051902;28;20025;-64
2022/12/26 10:09:14;;;;;;;9.70;5.80;;;13.60;99.90;;;;;;5051620;28;20094;-63
2022/12/26 10:12:15;;;;;;;10.63;6.25;;;13.60;99.90;;;;;;5051396;28;20033;-63
2022/12/26 10:14:53;;;;;;;8.70;5.30;;;13.70;99.90;;;;;;5051699;28;20537;-64
2022/12/26 10:17:48;;;;;;;10.23;5.60;;;14.00;99.90;;;;;;5051650;28;20025;-64
2022/12/26 10:20:23;;;;;;;9.00;5.43;;;14.00;99.90;;;;;;5051705;28;20036;-64
2022/12/26 10:23:23;;;;;;;10.00;5.40;;;13.90;99.90;;;;;;5051713;28;20025;-64
2022/12/26 10:26:02;;;;;;;12.65;5.15;;;14.00;99.90;;;;;;5051496;28;20533;-64
2022/12/26 10:28:46;;;;;;;10.70;5.22;;;14.20;99.90;;;;;;5052091;28;20017;-64
2022/12/26 10:31:27;;;;;;;10.10;4.68;;;14.60;99.90;;;;;;5055583;28;20025;-63
2022/12/26 10:33:56;;;;;;;7.82;4.57;;;14.70;99.90;;;;;;5055302;28;20032;-63
2022/12/26 10:36:34;;;;;;;9.00;4.72;;;14.50;99.90;;;;;;5055329;28;20481;-63
2022/12/26 10:39:03;;;;;;;9.18;4.97;;;14.40;99.90;;;;;;5055191;28;20047;-63
2022/12/26 10:41:41;;;;;;;6.70;5.13;;;14.40;99.90;;;;;;5054947;28;20029;-64
2022/12/26 10:44:13;;;;;;;7.97;4.70;;;15.00;99.90;;;;;;5055487;28;20037;-64
2022/12/26 10:46:53;;;;;;;8.43;4.78;;;15.20;99.90;;;;;;5055191;28;20417;-63
2022/12/26 10:49:22;;;;;;;7.78;4.70;;;16.60;99.90;;;;;;5055042;28;20031;-63
2022/12/26 10:51:49;;;;;;;10.98;5.40;;;20.40;99.90;;;;;;5055193;28;20029;-63
2022/12/26 10:54:17;;;;;;;9.65;4.93;;;21.00;99.90;;;;;;5055476;28;20021;-63
2022/12/26 10:56:46;;;;;;;7.28;4.57;;;22.00;99.90;;;;;;5054632;28;20478;-63
2022/12/26 10:59:39;;;;;;;9.18;4.72;;;20.50;99.90;;;;;;5054830;28;20048;-63
2022/12/26 11:02:23;;;;;;;8.13;4.57;;;20.80;99.90;;;;;;5054889;28;20032;-63
2022/12/26 11:05:12;;;;;;;7.53;3.83;;;24.80;99.90;;;;;;5054773;28;20542;-63
2022/12/26 11:07:54;;;;;;;6.18;3.80;;;25.90;99.90;;;;;;5054729;28;20477;-63
2022/12/26 11:10:25;;;;;;;9.55;3.90;;;26.10;99.90;;;;;;5054087;28;20060;-63
2022/12/26 11:12:55;;;;;;;12.05;3.90;;;25.10;99.90;;;;;;5054611;28;20431;-63
2022/12/26 11:15:38;;;;;;;12.57;4.40;;;22.60;99.90;;;;;;5054656;28;20470;-63
2022/12/26 11:18:21;;;;;;;13.38;4.85;;;21.50;99.90;;;;;;5054727;28;20032;-64
2022/12/26 11:20:48;;;;;;;9.10;4.53;;;20.20;99.90;;;;;;5053142;28;20448;-63
2022/12/26 11:23:24;;;;;;;7.93;3.50;;;19.40;99.90;;;;;;5054253;28;20281;-63
2022/12/26 11:25:55;;;;;;;11.35;3.53;;;18.60;99.90;;;;;;5054061;28;20370;-63
2022/12/26 11:28:36;;;;;;;10.27;3.65;;;18.30;99.90;;;;;;5053974;28;20397;-63
2022/12/26 11:31:05;;;;;;;8.48;3.40;;;18.20;99.90;;;;;;5053463;28;20362;-63
2022/12/26 11:33:33;;;;;;;8.88;3.00;;;18.40;99.90;;;;;;5054154;28;20095;-63
2022/12/26 11:36:22;;;;;;;7.80;3.08;;;18.60;99.90;;;;;;5054147;28;20029;-64
2022/12/26 11:38:58;;;;;;;5.72;2.60;;;19.00;99.90;;;;;;5053827;28;20067;-64
2022/12/26 11:41:30;;;;;;;11.98;3.75;;;18.80;99.90;;;;;;5053314;28;20241;-63
2022/12/26 11:44:02;;;;;;;8.43;3.10;;;19.00;99.90;;;;;;5053990;28;20017;-63
2022/12/26 11:46:37;;;;;;;12.32;3.38;;;19.00;99.90;;;;;;5054110;28;20032;-63
2022/12/26 11:49:04;;;;;;;13.10;2.90;;;18.70;99.90;;;;;;5054028;28;20482;-63
2022/12/26 11:51:40;;;;;;;11.63;3.33;;;18.30;99.90;;;;;;5053852;28;20486;-64
2022/12/26 11:54:45;;;;;;;9.73;3.30;;;18.00;99.90;;;;;;5053516;28;20021;-63
2022/12/26 11:57:17;;;;;;;8.38;3.10;;;17.60;99.90;;;;;;5050521;28;20037;-64
2022/12/26 11:59:43;;;;;;;13.75;3.20;;;17.90;99.90;;;;;;5053843;28;20108;-63
2022/12/26 12:02:11;;;;;;;9.65;3.50;;;18.00;99.90;;;;;;5053747;28;20375;-63
2022/12/26 12:04:37;;;;;;;11.77;4.55;;;17.60;99.90;;;;;;5053914;28;20614;-64
2022/12/26 12:07:33;;;;;;;16.77;6.40;;;17.40;99.90;;;;;;5053595;28;20099;-63
2022/12/26 12:10:04;;;;;;;13.23;4.25;;;17.10;99.90;;;;;;5053280;28;20313;-63
2022/12/26 12:12:46;;;;;;;9.65;3.95;;;17.10;99.90;;;;;;5053528;28;20098;-63
2022/12/26 12:15:33;;;;;;;9.32;2.72;;;17.20;99.90;;;;;;5053527;28;20025;-64
2022/12/26 12:18:13;;;;;;;6.85;2.47;;;16.70;99.90;;;;;;5053335;28;20071;-63
2022/12/26 12:21:02;;;;;;;4.80;2.15;;;16.40;99.90;;;;;;5053292;28;20029;-63
2022/12/26 12:23:53;;;;;;;11.90;4.60;;;16.30;99.90;;;;;;5052993;28;20481;-63
2022/12/26 12:26:39;;;;;;;10.88;5.32;;;16.20;99.90;;;;;;5053421;28;20379;-63
2022/12/26 12:29:38;;;;;;;19.70;9.57;;;16.20;99.90;;;;;;5053076;28;20389;-63
2022/12/26 12:32:12;;;;;;;11.32;5.63;;;16.60;99.90;;;;;;5053115;28;20017;-64
2022/12/26 12:35:06;;;;;;;12.05;4.75;;;16.60;99.90;;;;;;5053012;28;20086;-63
2022/12/26 12:37:57;;;;;;;13.40;5.35;;;16.50;99.90;;;;;;5051443;28;20452;-64
2022/12/26 12:40:32;;;;;;;9.93;3.42;;;16.50;99.90;;;;;;5053441;28;20484;-63
2022/12/26 12:43:01;;;;;;;9.30;3.22;;;16.60;99.90;;;;;;5052971;28;20481;-64
2022/12/26 12:45:37;;;;;;;13.05;4.32;;;16.60;99.90;;;;;;5052872;28;20044;-63
2022/12/26 12:48:40;;;;;;;7.70;2.97;;;16.90;99.90;;;;;;5052838;28;20478;-63
2022/12/26 12:51:39;;;;;;;6.78;2.10;;;17.00;99.90;;;;;;5052470;28;20025;-63
2022/12/26 12:54:10;;;;;;;7.13;2.60;;;17.00;99.90;;;;;;5052684;28;20025;-63
2022/12/26 12:56:58;;;;;;;4.30;1.45;;;16.80;99.90;;;;;;5052746;28;20056;-63
2022/12/26 12:59:47;;;;;;;5.57;1.30;;;16.60;99.90;;;;;;5052670;28;20087;-63
2022/12/26 13:02:39;;;;;;;5.93;2.25;;;16.50;99.90;;;;;;5049441;28;20493;-63
2022/12/26 13:05:35;;;;;;;8.13;3.13;;;16.20;99.90;;;;;;5052625;28;20013;-63
2022/12/26 13:08:19;;;;;;;8.85;3.75;;;16.10;99.90;;;;;;5030250;28;20084;-63
2022/12/26 13:10:53;;;;;;;6.78;2.33;;;16.00;99.90;;;;;;5029917;28;20053;-63
2022/12/26 13:13:51;;;;;;;13.73;5.32;;;16.10;99.90;;;;;;5030542;28;20052;-63
2022/12/26 13:16:27;;;;;;;13.55;5.00;;;16.10;99.90;;;;;;5020109;28;20034;-63
2022/12/26 13:19:01;;;;;;;10.55;3.88;;;16.30;99.90;;;;;;5030061;28;20168;-63
2022/12/26 13:21:30;;;;;;;5.45;2.80;;;16.20;99.90;;;;;;5029786;28;20029;-64
2022/12/26 13:24:31;;;;;;;5.82;1.60;;;16.00;99.90;;;;;;5030187;28;20025;-64
2022/12/26 13:27:04;;;;;;;5.68;1.27;;;16.00;99.90;;;;;;5030233;28;20056;-64
2022/12/26 13:29:30;;;;;;;3.22;1.45;;;16.00;99.90;;;;;;5030011;28;20025;-63
2022/12/26 13:31:58;;;;;;;5.63;1.73;;;15.90;99.90;;;;;;5030102;28;20374;-63
2022/12/26 13:34:24;;;;;;;7.55;1.60;;;15.90;99.90;;;;;;5030500;28;20141;-63
2022/12/26 13:36:53;;;;;;;4.82;1.63;;;15.80;99.90;;;;;;5029797;28;20168;-64
2022/12/26 13:39:22;;;;;;;5.35;1.35;;;15.70;99.90;;;;;;5029764;28;20046;-63
2022/12/26 13:44:48;;;;;;;3.97;1.27;;;15.40;99.90;;;;;;5008705;28;20042;-63
2022/12/26 13:47:32;;;;;;;2.58;1.42;;;15.00;99.90;;;;;;4971437;28;20532;-63
2022/12/26 13:49:57;;;;;;;;;;;14.70;99.90;;;;;;4971243;28;20043;-63
2022/12/26 13:52:34;;;;;;;12.82;6.68;;;14.80;99.90;;;;;;4971254;28;19906;-63
2022/12/26 13:55:06;;;;;;;11.50;5.45;;;14.70;99.90;;;;;;4971038;28;20543;-63
2022/12/26 13:57:37;;;;;;;9.50;4.22;;;14.60;99.90;;;;;;4970959;28;20073;-64
2022/12/26 14:00:05;;;;;;;8.27;3.78;;;14.60;99.90;;;;;;4971517;28;20090;-63
2022/12/26 14:03:21;;;;;;;19.02;9.32;;;14.40;99.90;;;;;;4970995;28;20035;-63
2022/12/26 14:06:04;;;;;;;12.05;6.60;;;14.30;99.90;;;;;;4974708;28;20031;-63
2022/12/26 14:08:59;;;;;;;15.75;8.75;;;14.40;99.90;;;;;;4974689;28;20408;-63
2022/12/26 14:11:28;;;;;;;12.38;6.00;;;14.30;99.90;;;;;;4955572;28;20066;-63
2022/12/26 14:13:53;;;;;;;15.82;10.02;;;14.40;99.90;;;;;;4955538;29;20032;-63
2022/12/26 14:16:25;;;;;;;30.35;20.75;;;14.50;99.90;;;;;;4955335;29;20045;-64
2022/12/26 14:19:10;;;;;;;30.58;23.45;;;14.70;99.90;;;;;;4955041;28;20416;-63
2022/12/26 14:21:44;;;;;;;7.75;3.67;;;14.70;99.90;;;;;;4964003;28;20031;-63
2022/12/26 14:24:36;;;;;;;11.27;8.55;;;14.70;99.90;;;;;;4974561;28;20046;-63
2022/12/26 14:27:16;;;;;;;6.60;2.20;;;14.60;99.90;;;;;;4974666;28;20042;-64
2022/12/26 14:30:06;;;;;;;2.83;1.60;;;14.60;99.90;;;;;;4992126;28;20030;-63
2022/12/26 14:33:00;;;;;;;2.97;1.20;;;14.60;99.90;;;;;;4993704;28;20049;-62
2022/12/26 14:35:26;;;;;;;;;;;14.60;99.90;;;;;;4956121;28;20126;-63
2022/12/26 14:38:33;;;;;;;5.68;2.92;;;14.40;99.90;;;;;;4974714;28;20439;-63
2022/12/26 14:41:03;;;;;;;8.65;7.75;;;14.50;99.90;;;;;;4954949;28;20406;-63
2022/12/26 14:43:40;;;;;;;8.95;7.18;;;14.40;99.90;;;;;;4955440;29;20118;-64
2022/12/26 14:46:28;;;;;;;10.60;9.55;;;14.40;99.90;;;;;;4954541;28;20059;-64
2022/12/26 14:49:16;;;;;;;12.68;11.38;;;14.30;99.90;;;;;;4954561;29;20035;-63
2022/12/26 14:51:42;;;;;;;5.65;2.80;;;14.30;99.90;;;;;;4954856;29;20035;-63
2022/12/26 14:54:29;;;;;;;3.90;1.48;;;14.40;99.90;;;;;;4954817;29;20082;-63
2022/12/26 14:56:55;;;;;;;3.13;1.60;;;14.40;99.90;;;;;;4955060;29;20170;-64
2022/12/26 14:59:28;;;;;;;3.83;3.08;;;14.40;99.90;;;;;;4954556;28;20130;-64
2022/12/26 15:02:23;;;;;;;7.90;1.60;;;14.40;99.90;;;;;;4954509;29;20488;-63
2022/12/26 15:05:00;;;;;;;3.40;1.50;;;14.40;99.90;;;;;;4954301;28;20574;-64
2022/12/26 15:07:45;;;;;;;5.32;1.60;;;14.30;99.90;;;;;;4954614;28;20039;-64
2022/12/26 15:10:28;;;;;;;2.95;2.20;;;14.40;99.90;;;;;;4944243;28;20071;-64
2022/12/26 15:13:30;;;;;;;7.20;2.47;;;14.40;99.90;;;;;;4981243;28;20120;-63
2022/12/26 15:16:08;;;;;;;4.07;1.33;;;14.30;99.90;;;;;;4993245;28;20117;-63
2022/12/26 15:18:58;;;;;;;16.10;13.55;;;14.20;99.90;;;;;;5053789;28;20068;-63
2022/12/26 15:22:11;;;;;;;5.35;3.70;;;14.20;99.90;;;;;;5053241;28;20440;-63